Terminal Aerodrome Forecast
Issued by NWS

Home | Current Version | Previous Version | Graphics & Text | Print | Product List | Glossary On
Versions: 1 2 3 4 5 6 7 8 9 10 11 12 13 14 15 16 17 18 19 20 21 22 23 24 25 26 27 28 29 30 31 32 33
339
FTUS43 KLOT 160757 AAA
TAFMDW
TAF AMD
KMDW 160757Z 1608/1706 30012KT P6SM FEW025
     FM160930 32012KT P6SM SCT020 OVC025
     FM161900 02006KT P6SM SCT025 BKN250
     FM170000 11004KT P6SM SCT025 BKN150=

USA.gov is the U.S. government's official web portal to all federal, state and local government web resources and services.